sensor_id;sensor_type;location;lat;lon;timestamp;P1;durP1;ratioP1;P2;durP2;ratioP2
19877;SDS011;10101;52.204;9.910;2024-03-08T00:00:58;24.43;;;12.27;;
19877;SDS011;10101;52.204;9.910;2024-03-08T00:03:25;26.17;;;13.33;;
19877;SDS011;10101;52.204;9.910;2024-03-08T00:05:55;21.53;;;12.97;;
19877;SDS011;10101;52.204;9.910;2024-03-08T00:08:22;23.57;;;13.63;;
19877;SDS011;10101;52.204;9.910;2024-03-08T00:10:50;24.37;;;13.20;;
19877;SDS011;10101;52.204;9.910;2024-03-08T00:13:17;25.50;;;13.10;;
19877;SDS011;10101;52.204;9.910;2024-03-08T00:15:44;25.80;;;13.73;;
19877;SDS011;10101;52.204;9.910;2024-03-08T00:18:10;22.10;;;12.57;;
19877;SDS011;10101;52.204;9.910;2024-03-08T00:20:37;22.10;;;13.17;;
19877;SDS011;10101;52.204;9.910;2024-03-08T00:23:05;23.20;;;13.33;;
19877;SDS011;10101;52.204;9.910;2024-03-08T00:25:32;26.73;;;12.80;;
19877;SDS011;10101;52.204;9.910;2024-03-08T00:28:01;23.60;;;12.93;;
19877;SDS011;10101;52.204;9.910;2024-03-08T00:30:29;26.47;;;14.13;;
19877;SDS011;10101;52.204;9.910;2024-03-08T00:32:56;24.43;;;13.00;;
19877;SDS011;10101;52.204;9.910;2024-03-08T00:35:23;22.33;;;12.53;;
19877;SDS011;10101;52.204;9.910;2024-03-08T00:37:50;21.80;;;12.23;;
19877;SDS011;10101;52.204;9.910;2024-03-08T00:40:18;21.87;;;12.40;;
19877;SDS011;10101;52.204;9.910;2024-03-08T00:42:45;20.83;;;12.47;;
19877;SDS011;10101;52.204;9.910;2024-03-08T00:45:12;24.60;;;14.23;;
19877;SDS011;10101;52.204;9.910;2024-03-08T00:47:39;22.70;;;12.80;;
19877;SDS011;10101;52.204;9.910;2024-03-08T00:50:09;24.10;;;12.93;;
19877;SDS011;10101;52.204;9.910;2024-03-08T00:52:36;25.43;;;12.60;;
19877;SDS011;10101;52.204;9.910;2024-03-08T00:55:03;23.07;;;12.33;;
19877;SDS011;10101;52.204;9.910;2024-03-08T00:57:32;23.60;;;13.37;;
19877;SDS011;10101;52.204;9.910;2024-03-08T00:59:59;21.53;;;11.70;;
19877;SDS011;10101;52.204;9.910;2024-03-08T01:02:26;28.43;;;14.13;;
19877;SDS011;10101;52.204;9.910;2024-03-08T01:04:54;25.23;;;13.73;;
19877;SDS011;10101;52.204;9.910;2024-03-08T01:07:21;21.17;;;12.60;;
19877;SDS011;10101;52.204;9.910;2024-03-08T01:09:48;21.33;;;12.33;;
19877;SDS011;10101;52.204;9.910;2024-03-08T01:12:15;24.63;;;13.47;;
19877;SDS011;10101;52.204;9.910;2024-03-08T01:14:43;24.00;;;13.53;;
19877;SDS011;10101;52.204;9.910;2024-03-08T01:17:10;23.00;;;13.50;;
19877;SDS011;10101;52.204;9.910;2024-03-08T01:19:38;23.23;;;12.27;;
19877;SDS011;10101;52.204;9.910;2024-03-08T01:22:05;21.17;;;12.23;;
19877;SDS011;10101;52.204;9.910;2024-03-08T01:24:32;23.33;;;13.00;;
19877;SDS011;10101;52.204;9.910;2024-03-08T01:26:59;22.70;;;12.47;;
19877;SDS011;10101;52.204;9.910;2024-03-08T01:29:27;20.47;;;11.93;;
19877;SDS011;10101;52.204;9.910;2024-03-08T01:31:56;25.47;;;13.17;;
19877;SDS011;10101;52.204;9.910;2024-03-08T01:34:25;23.23;;;13.80;;
19877;SDS011;10101;52.204;9.910;2024-03-08T01:36:53;27.63;;;15.07;;
19877;SDS011;10101;52.204;9.910;2024-03-08T01:39:21;24.67;;;13.30;;
19877;SDS011;10101;52.204;9.910;2024-03-08T01:41:48;24.83;;;13.80;;
19877;SDS011;10101;52.204;9.910;2024-03-08T01:44:15;24.90;;;14.30;;
19877;SDS011;10101;52.204;9.910;2024-03-08T01:46:43;27.57;;;13.10;;
19877;SDS011;10101;52.204;9.910;2024-03-08T01:49:12;27.70;;;14.03;;
19877;SDS011;10101;52.204;9.910;2024-03-08T01:51:39;24.70;;;13.90;;
19877;SDS011;10101;52.204;9.910;2024-03-08T01:54:07;25.27;;;14.10;;
19877;SDS011;10101;52.204;9.910;2024-03-08T01:56:37;26.33;;;14.60;;
19877;SDS011;10101;52.204;9.910;2024-03-08T01:59:05;29.90;;;14.40;;
19877;SDS011;10101;52.204;9.910;2024-03-08T02:01:32;26.27;;;13.90;;
19877;SDS011;10101;52.204;9.910;2024-03-08T02:04:00;31.53;;;13.90;;
19877;SDS011;10101;52.204;9.910;2024-03-08T02:06:28;24.50;;;12.77;;
19877;SDS011;10101;52.204;9.910;2024-03-08T02:08:55;24.43;;;12.77;;
19877;SDS011;10101;52.204;9.910;2024-03-08T02:11:22;26.67;;;13.97;;
19877;SDS011;10101;52.204;9.910;2024-03-08T02:13:49;27.43;;;14.23;;
19877;SDS011;10101;52.204;9.910;2024-03-08T02:16:20;27.27;;;14.73;;
19877;SDS011;10101;52.204;9.910;2024-03-08T02:18:47;24.30;;;13.33;;
19877;SDS011;10101;52.204;9.910;2024-03-08T02:21:16;26.20;;;13.73;;
19877;SDS011;10101;52.204;9.910;2024-03-08T02:23:44;25.27;;;13.27;;
19877;SDS011;10101;52.204;9.910;2024-03-08T02:26:11;25.73;;;13.90;;
19877;SDS011;10101;52.204;9.910;2024-03-08T02:28:38;27.00;;;14.13;;
19877;SDS011;10101;52.204;9.910;2024-03-08T02:31:08;26.47;;;14.10;;
19877;SDS011;10101;52.204;9.910;2024-03-08T02:33:35;27.80;;;13.70;;
19877;SDS011;10101;52.204;9.910;2024-03-08T02:36:01;24.73;;;14.17;;
19877;SDS011;10101;52.204;9.910;2024-03-08T02:38:30;24.07;;;13.67;;
19877;SDS011;10101;52.204;9.910;2024-03-08T02:40:58;29.33;;;14.90;;
19877;SDS011;10101;52.204;9.910;2024-03-08T02:43:24;31.10;;;15.30;;
19877;SDS011;10101;52.204;9.910;2024-03-08T02:45:51;30.97;;;15.30;;
19877;SDS011;10101;52.204;9.910;2024-03-08T02:48:19;29.23;;;14.17;;
19877;SDS011;10101;52.204;9.910;2024-03-08T02:50:46;27.53;;;14.70;;
19877;SDS011;10101;52.204;9.910;2024-03-08T02:53:16;27.10;;;15.17;;
19877;SDS011;10101;52.204;9.910;2024-03-08T02:55:45;30.67;;;15.10;;
19877;SDS011;10101;52.204;9.910;2024-03-08T02:58:12;24.60;;;13.97;;
19877;SDS011;10101;52.204;9.910;2024-03-08T03:00:39;27.23;;;14.23;;
19877;SDS011;10101;52.204;9.910;2024-03-08T03:03:06;27.43;;;14.03;;
19877;SDS011;10101;52.204;9.910;2024-03-08T03:05:33;28.10;;;14.20;;
19877;SDS011;10101;52.204;9.910;2024-03-08T03:08:00;26.60;;;14.37;;
19877;SDS011;10101;52.204;9.910;2024-03-08T03:10:31;26.50;;;14.87;;
19877;SDS011;10101;52.204;9.910;2024-03-08T03:13:00;26.03;;;14.20;;
19877;SDS011;10101;52.204;9.910;2024-03-08T03:15:26;28.30;;;14.87;;
19877;SDS011;10101;52.204;9.910;2024-03-08T03:17:54;26.43;;;14.90;;
19877;SDS011;10101;52.204;9.910;2024-03-08T03:20:20;26.63;;;13.93;;
19877;SDS011;10101;52.204;9.910;2024-03-08T03:22:51;25.50;;;13.93;;
19877;SDS011;10101;52.204;9.910;2024-03-08T03:25:18;29.53;;;14.83;;
19877;SDS011;10101;52.204;9.910;2024-03-08T03:27:50;26.30;;;14.30;;
19877;SDS011;10101;52.204;9.910;2024-03-08T03:30:19;28.37;;;14.60;;
19877;SDS011;10101;52.204;9.910;2024-03-08T03:32:47;25.90;;;14.60;;
19877;SDS011;10101;52.204;9.910;2024-03-08T03:35:14;27.17;;;13.50;;
19877;SDS011;10101;52.204;9.910;2024-03-08T03:37:42;27.60;;;13.77;;
19877;SDS011;10101;52.204;9.910;2024-03-08T03:40:11;27.30;;;14.53;;
19877;SDS011;10101;52.204;9.910;2024-03-08T03:42:39;28.73;;;15.07;;
19877;SDS011;10101;52.204;9.910;2024-03-08T03:45:06;27.37;;;14.23;;
19877;SDS011;10101;52.204;9.910;2024-03-08T03:47:35;27.93;;;15.27;;
19877;SDS011;10101;52.204;9.910;2024-03-08T03:50:04;25.77;;;13.57;;
19877;SDS011;10101;52.204;9.910;2024-03-08T03:52:32;29.03;;;14.87;;
19877;SDS011;10101;52.204;9.910;2024-03-08T03:54:58;24.90;;;13.73;;
19877;SDS011;10101;52.204;9.910;2024-03-08T03:57:25;26.60;;;14.33;;
19877;SDS011;10101;52.204;9.910;2024-03-08T03:59:53;26.50;;;14.53;;
19877;SDS011;10101;52.204;9.910;2024-03-08T04:02:20;27.27;;;13.90;;
19877;SDS011;10101;52.204;9.910;2024-03-08T04:04:48;29.63;;;15.23;;
19877;SDS011;10101;52.204;9.910;2024-03-08T04:07:15;30.13;;;15.73;;
19877;SDS011;10101;52.204;9.910;2024-03-08T04:09:42;32.07;;;15.47;;
19877;SDS011;10101;52.204;9.910;2024-03-08T04:12:09;30.03;;;15.57;;
19877;SDS011;10101;52.204;9.910;2024-03-08T04:14:36;27.47;;;15.00;;
19877;SDS011;10101;52.204;9.910;2024-03-08T04:17:05;26.70;;;14.67;;
19877;SDS011;10101;52.204;9.910;2024-03-08T04:19:32;31.87;;;16.47;;
19877;SDS011;10101;52.204;9.910;2024-03-08T04:22:00;23.73;;;12.93;;
19877;SDS011;10101;52.204;9.910;2024-03-08T04:24:27;28.47;;;15.30;;
19877;SDS011;10101;52.204;9.910;2024-03-08T04:26:55;29.60;;;16.20;;
19877;SDS011;10101;52.204;9.910;2024-03-08T04:29:22;28.80;;;15.50;;
19877;SDS011;10101;52.204;9.910;2024-03-08T04:31:49;30.50;;;15.80;;
19877;SDS011;10101;52.204;9.910;2024-03-08T04:34:19;27.13;;;15.60;;
19877;SDS011;10101;52.204;9.910;2024-03-08T04:36:46;31.63;;;15.47;;
19877;SDS011;10101;52.204;9.910;2024-03-08T04:39:14;25.90;;;14.70;;
19877;SDS011;10101;52.204;9.910;2024-03-08T04:41:43;27.27;;;14.27;;
19877;SDS011;10101;52.204;9.910;2024-03-08T04:44:11;26.43;;;15.73;;
19877;SDS011;10101;52.204;9.910;2024-03-08T04:46:38;30.07;;;15.47;;
19877;SDS011;10101;52.204;9.910;2024-03-08T04:49:06;28.27;;;15.17;;
19877;SDS011;10101;52.204;9.910;2024-03-08T04:51:33;36.27;;;16.97;;
19877;SDS011;10101;52.204;9.910;2024-03-08T04:54:00;30.70;;;15.90;;
19877;SDS011;10101;52.204;9.910;2024-03-08T04:56:28;32.10;;;16.53;;
19877;SDS011;10101;52.204;9.910;2024-03-08T04:58:55;31.33;;;15.77;;
19877;SDS011;10101;52.204;9.910;2024-03-08T05:01:22;30.27;;;15.13;;
19877;SDS011;10101;52.204;9.910;2024-03-08T05:03:49;25.57;;;14.10;;
19877;SDS011;10101;52.204;9.910;2024-03-08T05:06:19;28.77;;;15.90;;
19877;SDS011;10101;52.204;9.910;2024-03-08T05:08:46;28.53;;;15.73;;
19877;SDS011;10101;52.204;9.910;2024-03-08T05:11:13;27.13;;;14.27;;
19877;SDS011;10101;52.204;9.910;2024-03-08T05:13:42;30.30;;;15.93;;
19877;SDS011;10101;52.204;9.910;2024-03-08T05:16:10;33.73;;;16.70;;
19877;SDS011;10101;52.204;9.910;2024-03-08T05:18:37;29.03;;;15.87;;
19877;SDS011;10101;52.204;9.910;2024-03-08T05:21:04;29.97;;;15.67;;
19877;SDS011;10101;52.204;9.910;2024-03-08T05:23:30;33.13;;;16.67;;
19877;SDS011;10101;52.204;9.910;2024-03-08T05:25:57;31.17;;;16.30;;
19877;SDS011;10101;52.204;9.910;2024-03-08T05:28:24;31.17;;;16.03;;
19877;SDS011;10101;52.204;9.910;2024-03-08T05:30:53;27.40;;;15.27;;
19877;SDS011;10101;52.204;9.910;2024-03-08T05:33:22;33.50;;;16.20;;
19877;SDS011;10101;52.204;9.910;2024-03-08T05:35:49;28.37;;;15.67;;
19877;SDS011;10101;52.204;9.910;2024-03-08T05:38:17;27.87;;;15.87;;
19877;SDS011;10101;52.204;9.910;2024-03-08T05:40:45;26.83;;;15.00;;
19877;SDS011;10101;52.204;9.910;2024-03-08T05:43:12;30.00;;;16.23;;
19877;SDS011;10101;52.204;9.910;2024-03-08T05:45:42;31.30;;;16.40;;
19877;SDS011;10101;52.204;9.910;2024-03-08T05:48:11;32.63;;;16.43;;
19877;SDS011;10101;52.204;9.910;2024-03-08T05:50:38;29.10;;;16.27;;
19877;SDS011;10101;52.204;9.910;2024-03-08T05:53:05;32.17;;;16.07;;
19877;SDS011;10101;52.204;9.910;2024-03-08T05:55:32;30.20;;;16.40;;
19877;SDS011;10101;52.204;9.910;2024-03-08T05:58:00;36.83;;;16.63;;
19877;SDS011;10101;52.204;9.910;2024-03-08T06:00:27;31.77;;;16.63;;
19877;SDS011;10101;52.204;9.910;2024-03-08T06:02:56;30.70;;;16.23;;
19877;SDS011;10101;52.204;9.910;2024-03-08T06:05:25;31.20;;;16.80;;
19877;SDS011;10101;52.204;9.910;2024-03-08T06:07:52;30.63;;;17.23;;
19877;SDS011;10101;52.204;9.910;2024-03-08T06:10:19;28.70;;;16.43;;
19877;SDS011;10101;52.204;9.910;2024-03-08T06:12:46;34.43;;;16.50;;
19877;SDS011;10101;52.204;9.910;2024-03-08T06:15:13;29.33;;;15.83;;
19877;SDS011;10101;52.204;9.910;2024-03-08T06:17:41;30.43;;;16.40;;
19877;SDS011;10101;52.204;9.910;2024-03-08T06:20:08;31.47;;;17.03;;
19877;SDS011;10101;52.204;9.910;2024-03-08T06:22:39;32.37;;;16.70;;
19877;SDS011;10101;52.204;9.910;2024-03-08T06:25:07;31.67;;;16.83;;
19877;SDS011;10101;52.204;9.910;2024-03-08T06:27:36;34.37;;;16.63;;
19877;SDS011;10101;52.204;9.910;2024-03-08T06:30:03;32.70;;;16.20;;
19877;SDS011;10101;52.204;9.910;2024-03-08T06:32:31;30.97;;;16.07;;
19877;SDS011;10101;52.204;9.910;2024-03-08T06:35:00;31.77;;;17.13;;
19877;SDS011;10101;52.204;9.910;2024-03-08T06:37:27;29.33;;;15.87;;
19877;SDS011;10101;52.204;9.910;2024-03-08T06:39:57;28.63;;;16.50;;
19877;SDS011;10101;52.204;9.910;2024-03-08T06:42:23;30.13;;;17.17;;
19877;SDS011;10101;52.204;9.910;2024-03-08T06:44:50;31.10;;;17.37;;
19877;SDS011;10101;52.204;9.910;2024-03-08T06:47:20;31.80;;;17.70;;
19877;SDS011;10101;52.204;9.910;2024-03-08T06:49:50;34.77;;;17.93;;
19877;SDS011;10101;52.204;9.910;2024-03-08T06:52:17;31.67;;;17.97;;
19877;SDS011;10101;52.204;9.910;2024-03-08T06:54:44;29.77;;;17.50;;
19877;SDS011;10101;52.204;9.910;2024-03-08T06:57:13;28.27;;;15.87;;
19877;SDS011;10101;52.204;9.910;2024-03-08T06:59:41;31.23;;;17.47;;
19877;SDS011;10101;52.204;9.910;2024-03-08T07:02:08;33.57;;;17.47;;
19877;SDS011;10101;52.204;9.910;2024-03-08T07:04:38;28.67;;;17.00;;
19877;SDS011;10101;52.204;9.910;2024-03-08T07:07:05;36.67;;;17.27;;
19877;SDS011;10101;52.204;9.910;2024-03-08T07:09:34;27.43;;;15.60;;
19877;SDS011;10101;52.204;9.910;2024-03-08T07:12:01;29.07;;;16.97;;
19877;SDS011;10101;52.204;9.910;2024-03-08T07:14:30;27.93;;;16.10;;
19877;SDS011;10101;52.204;9.910;2024-03-08T07:16:57;35.23;;;18.07;;
19877;SDS011;10101;52.204;9.910;2024-03-08T07:19:24;31.57;;;17.07;;
19877;SDS011;10101;52.204;9.910;2024-03-08T07:21:51;29.77;;;17.37;;
19877;SDS011;10101;52.204;9.910;2024-03-08T07:24:17;29.20;;;17.00;;
19877;SDS011;10101;52.204;9.910;2024-03-08T07:27:03;29.07;;;17.33;;
19877;SDS011;10101;52.204;9.910;2024-03-08T07:29:31;30.07;;;17.33;;
19877;SDS011;10101;52.204;9.910;2024-03-08T07:31:58;30.00;;;16.90;;
19877;SDS011;10101;52.204;9.910;2024-03-08T07:34:37;31.87;;;17.03;;
19877;SDS011;10101;52.204;9.910;2024-03-08T07:37:05;31.97;;;17.30;;
19877;SDS011;10101;52.204;9.910;2024-03-08T07:39:36;29.30;;;17.03;;
19877;SDS011;10101;52.204;9.910;2024-03-08T07:42:04;30.53;;;17.83;;
19877;SDS011;10101;52.204;9.910;2024-03-08T07:44:32;29.43;;;16.90;;
19877;SDS011;10101;52.204;9.910;2024-03-08T07:46:59;31.70;;;17.80;;
19877;SDS011;10101;52.204;9.910;2024-03-08T07:49:26;30.17;;;16.63;;
19877;SDS011;10101;52.204;9.910;2024-03-08T07:51:52;31.27;;;18.20;;
19877;SDS011;10101;52.204;9.910;2024-03-08T07:54:19;33.37;;;16.90;;
19877;SDS011;10101;52.204;9.910;2024-03-08T07:56:46;33.47;;;17.83;;
19877;SDS011;10101;52.204;9.910;2024-03-08T07:59:13;29.73;;;17.03;;
19877;SDS011;10101;52.204;9.910;2024-03-08T08:01:41;31.00;;;17.73;;
19877;SDS011;10101;52.204;9.910;2024-03-08T08:04:09;29.87;;;16.93;;
19877;SDS011;10101;52.204;9.910;2024-03-08T08:06:37;29.50;;;16.97;;
19877;SDS011;10101;52.204;9.910;2024-03-08T08:09:06;30.73;;;16.57;;
19877;SDS011;10101;52.204;9.910;2024-03-08T08:11:39;32.47;;;17.73;;
19877;SDS011;10101;52.204;9.910;2024-03-08T08:14:08;32.63;;;17.43;;
19877;SDS011;10101;52.204;9.910;2024-03-08T08:16:35;30.30;;;16.83;;
19877;SDS011;10101;52.204;9.910;2024-03-08T08:19:04;31.40;;;17.37;;
19877;SDS011;10101;52.204;9.910;2024-03-08T08:21:33;30.90;;;16.43;;
19877;SDS011;10101;52.204;9.910;2024-03-08T08:24:01;32.00;;;17.03;;
19877;SDS011;10101;52.204;9.910;2024-03-08T08:26:28;31.77;;;17.00;;
19877;SDS011;10101;52.204;9.910;2024-03-08T08:28:55;29.93;;;16.80;;
19877;SDS011;10101;52.204;9.910;2024-03-08T08:31:22;29.87;;;16.83;;
19877;SDS011;10101;52.204;9.910;2024-03-08T08:33:49;30.50;;;16.47;;
19877;SDS011;10101;52.204;9.910;2024-03-08T08:36:22;33.77;;;17.70;;
19877;SDS011;10101;52.204;9.910;2024-03-08T08:38:49;27.30;;;15.77;;
19877;SDS011;10101;52.204;9.910;2024-03-08T08:41:15;29.23;;;17.00;;
19877;SDS011;10101;52.204;9.910;2024-03-08T08:43:43;28.00;;;16.60;;
19877;SDS011;10101;52.204;9.910;2024-03-08T08:46:10;33.93;;;17.93;;
19877;SDS011;10101;52.204;9.910;2024-03-08T08:48:38;30.17;;;17.43;;
19877;SDS011;10101;52.204;9.910;2024-03-08T08:51:06;29.33;;;16.57;;
19877;SDS011;10101;52.204;9.910;2024-03-08T08:53:38;32.77;;;18.23;;
19877;SDS011;10101;52.204;9.910;2024-03-08T08:56:07;31.70;;;17.50;;
19877;SDS011;10101;52.204;9.910;2024-03-08T08:58:37;30.63;;;17.13;;
19877;SDS011;10101;52.204;9.910;2024-03-08T09:01:05;30.90;;;17.83;;
19877;SDS011;10101;52.204;9.910;2024-03-08T09:03:32;29.20;;;17.10;;
19877;SDS011;10101;52.204;9.910;2024-03-08T09:06:00;27.63;;;17.03;;
19877;SDS011;10101;52.204;9.910;2024-03-08T09:08:27;27.50;;;17.57;;
19877;SDS011;10101;52.204;9.910;2024-03-08T09:10:56;28.67;;;17.13;;
19877;SDS011;10101;52.204;9.910;2024-03-08T09:13:24;29.03;;;17.60;;
19877;SDS011;10101;52.204;9.910;2024-03-08T09:15:51;27.10;;;16.77;;
19877;SDS011;10101;52.204;9.910;2024-03-08T09:18:18;28.40;;;17.17;;
19877;SDS011;10101;52.204;9.910;2024-03-08T09:20:45;26.63;;;16.67;;
19877;SDS011;10101;52.204;9.910;2024-03-08T09:23:13;29.77;;;17.33;;
19877;SDS011;10101;52.204;9.910;2024-03-08T09:25:41;30.70;;;17.37;;
19877;SDS011;10101;52.204;9.910;2024-03-08T09:28:10;26.50;;;16.67;;
19877;SDS011;10101;52.204;9.910;2024-03-08T09:30:37;28.83;;;16.20;;
19877;SDS011;10101;52.204;9.910;2024-03-08T09:33:04;30.87;;;16.90;;
19877;SDS011;10101;52.204;9.910;2024-03-08T09:35:31;30.13;;;17.13;;
19877;SDS011;10101;52.204;9.910;2024-03-08T09:37:58;26.63;;;16.77;;
19877;SDS011;10101;52.204;9.910;2024-03-08T09:40:25;31.80;;;17.13;;
19877;SDS011;10101;52.204;9.910;2024-03-08T09:42:52;28.73;;;16.63;;
19877;SDS011;10101;52.204;9.910;2024-03-08T09:45:21;29.83;;;17.00;;
19877;SDS011;10101;52.204;9.910;2024-03-08T09:47:50;27.07;;;16.93;;
19877;SDS011;10101;52.204;9.910;2024-03-08T09:50:18;30.37;;;17.77;;
19877;SDS011;10101;52.204;9.910;2024-03-08T09:52:46;27.63;;;16.97;;
19877;SDS011;10101;52.204;9.910;2024-03-08T09:55:15;30.17;;;17.43;;
19877;SDS011;10101;52.204;9.910;2024-03-08T09:57:47;28.63;;;17.10;;
19877;SDS011;10101;52.204;9.910;2024-03-08T10:00:30;27.00;;;17.27;;
19877;SDS011;10101;52.204;9.910;2024-03-08T10:03:00;33.10;;;17.67;;
19877;SDS011;10101;52.204;9.910;2024-03-08T10:05:27;26.93;;;16.87;;
19877;SDS011;10101;52.204;9.910;2024-03-08T10:07:54;31.53;;;16.70;;
19877;SDS011;10101;52.204;9.910;2024-03-08T10:10:21;28.93;;;16.47;;
19877;SDS011;10101;52.204;9.910;2024-03-08T10:12:48;27.53;;;17.37;;
19877;SDS011;10101;52.204;9.910;2024-03-08T10:15:15;27.07;;;16.83;;
19877;SDS011;10101;52.204;9.910;2024-03-08T10:17:44;27.53;;;17.33;;
19877;SDS011;10101;52.204;9.910;2024-03-08T10:20:14;27.87;;;16.70;;
19877;SDS011;10101;52.204;9.910;2024-03-08T10:22:41;27.50;;;16.53;;
19877;SDS011;10101;52.204;9.910;2024-03-08T10:25:09;30.40;;;17.20;;
19877;SDS011;10101;52.204;9.910;2024-03-08T10:27:37;26.00;;;16.27;;
19877;SDS011;10101;52.204;9.910;2024-03-08T10:30:06;29.70;;;17.23;;
19877;SDS011;10101;52.204;9.910;2024-03-08T10:32:38;30.50;;;17.70;;
19877;SDS011;10101;52.204;9.910;2024-03-08T10:35:08;27.37;;;16.20;;
19877;SDS011;10101;52.204;9.910;2024-03-08T10:37:39;27.47;;;17.07;;
19877;SDS011;10101;52.204;9.910;2024-03-08T10:40:13;29.77;;;17.10;;
19877;SDS011;10101;52.204;9.910;2024-03-08T10:42:47;29.10;;;16.77;;
19877;SDS011;10101;52.204;9.910;2024-03-08T10:45:21;26.77;;;16.83;;
19877;SDS011;10101;52.204;9.910;2024-03-08T10:47:59;34.40;;;16.70;;
19877;SDS011;10101;52.204;9.910;2024-03-08T10:50:36;32.50;;;18.43;;
19877;SDS011;10101;52.204;9.910;2024-03-08T10:53:04;30.50;;;17.57;;
19877;SDS011;10101;52.204;9.910;2024-03-08T10:55:33;28.43;;;17.20;;
19877;SDS011;10101;52.204;9.910;2024-03-08T10:58:02;29.57;;;17.27;;
19877;SDS011;10101;52.204;9.910;2024-03-08T11:00:29;29.83;;;16.77;;
19877;SDS011;10101;52.204;9.910;2024-03-08T11:02:57;28.80;;;17.40;;
19877;SDS011;10101;52.204;9.910;2024-03-08T11:05:31;31.87;;;18.03;;
19877;SDS011;10101;52.204;9.910;2024-03-08T11:08:05;30.93;;;18.47;;
19877;SDS011;10101;52.204;9.910;2024-03-08T11:10:46;32.67;;;17.70;;
19877;SDS011;10101;52.204;9.910;2024-03-08T11:16:01;26.90;;;17.00;;
19877;SDS011;10101;52.204;9.910;2024-03-08T11:18:32;27.47;;;16.70;;
19877;SDS011;10101;52.204;9.910;2024-03-08T11:21:02;27.37;;;16.93;;
19877;SDS011;10101;52.204;9.910;2024-03-08T11:23:33;27.17;;;17.03;;
19877;SDS011;10101;52.204;9.910;2024-03-08T11:26:00;29.00;;;17.37;;
19877;SDS011;10101;52.204;9.910;2024-03-08T11:28:32;27.07;;;16.73;;
19877;SDS011;10101;52.204;9.910;2024-03-08T11:33:51;27.10;;;17.10;;
19877;SDS011;10101;52.204;9.910;2024-03-08T11:36:20;31.80;;;17.87;;
19877;SDS011;10101;52.204;9.910;2024-03-08T11:38:49;25.10;;;15.77;;
19877;SDS011;10101;52.204;9.910;2024-03-08T11:41:18;26.43;;;16.70;;
19877;SDS011;10101;52.204;9.910;2024-03-08T11:43:46;26.20;;;16.57;;
19877;SDS011;10101;52.204;9.910;2024-03-08T11:46:13;27.37;;;16.63;;
19877;SDS011;10101;52.204;9.910;2024-03-08T11:48:40;26.20;;;16.20;;
19877;SDS011;10101;52.204;9.910;2024-03-08T11:51:08;27.53;;;16.07;;
19877;SDS011;10101;52.204;9.910;2024-03-08T11:53:36;27.67;;;16.13;;
19877;SDS011;10101;52.204;9.910;2024-03-08T11:56:08;26.30;;;16.50;;
19877;SDS011;10101;52.204;9.910;2024-03-08T11:58:37;29.90;;;16.83;;
19877;SDS011;10101;52.204;9.910;2024-03-08T12:01:05;29.07;;;15.53;;
19877;SDS011;10101;52.204;9.910;2024-03-08T12:03:32;25.87;;;16.13;;
19877;SDS011;10101;52.204;9.910;2024-03-08T12:05:59;26.90;;;16.23;;
19877;SDS011;10101;52.204;9.910;2024-03-08T12:08:28;25.00;;;16.27;;
19877;SDS011;10101;52.204;9.910;2024-03-08T12:10:57;28.53;;;17.23;;
19877;SDS011;10101;52.204;9.910;2024-03-08T12:13:27;24.67;;;15.17;;
19877;SDS011;10101;52.204;9.910;2024-03-08T12:15:55;26.53;;;16.17;;
19877;SDS011;10101;52.204;9.910;2024-03-08T12:18:24;26.13;;;15.80;;
19877;SDS011;10101;52.204;9.910;2024-03-08T12:21:03;28.30;;;17.53;;
19877;SDS011;10101;52.204;9.910;2024-03-08T12:23:32;27.07;;;16.43;;
19877;SDS011;10101;52.204;9.910;2024-03-08T12:26:08;26.30;;;16.57;;
19877;SDS011;10101;52.204;9.910;2024-03-08T12:28:39;27.80;;;16.90;;
19877;SDS011;10101;52.204;9.910;2024-03-08T12:31:07;29.17;;;17.57;;
19877;SDS011;10101;52.204;9.910;2024-03-08T12:33:36;29.90;;;17.40;;
19877;SDS011;10101;52.204;9.910;2024-03-08T12:36:03;28.93;;;15.67;;
19877;SDS011;10101;52.204;9.910;2024-03-08T12:38:32;28.87;;;16.70;;
19877;SDS011;10101;52.204;9.910;2024-03-08T12:41:11;27.30;;;16.77;;
19877;SDS011;10101;52.204;9.910;2024-03-08T12:43:43;26.40;;;16.33;;
19877;SDS011;10101;52.204;9.910;2024-03-08T12:46:13;26.10;;;15.93;;
19877;SDS011;10101;52.204;9.910;2024-03-08T12:48:40;29.20;;;16.93;;
19877;SDS011;10101;52.204;9.910;2024-03-08T12:51:10;28.40;;;17.30;;
19877;SDS011;10101;52.204;9.910;2024-03-08T12:53:37;26.67;;;16.87;;
19877;SDS011;10101;52.204;9.910;2024-03-08T12:56:05;27.07;;;15.90;;
19877;SDS011;10101;52.204;9.910;2024-03-08T12:58:33;24.57;;;16.37;;
19877;SDS011;10101;52.204;9.910;2024-03-08T13:01:03;26.80;;;16.47;;
19877;SDS011;10101;52.204;9.910;2024-03-08T13:03:32;26.37;;;15.53;;
19877;SDS011;10101;52.204;9.910;2024-03-08T13:06:00;26.77;;;16.53;;
19877;SDS011;10101;52.204;9.910;2024-03-08T13:08:28;27.73;;;16.57;;
19877;SDS011;10101;52.204;9.910;2024-03-08T13:10:56;29.77;;;16.67;;
19877;SDS011;10101;52.204;9.910;2024-03-08T13:13:24;26.00;;;16.47;;
19877;SDS011;10101;52.204;9.910;2024-03-08T13:15:51;26.27;;;16.73;;
19877;SDS011;10101;52.204;9.910;2024-03-08T13:18:19;26.67;;;15.93;;
19877;SDS011;10101;52.204;9.910;2024-03-08T13:20:46;24.83;;;15.80;;
19877;SDS011;10101;52.204;9.910;2024-03-08T13:23:15;25.63;;;15.30;;
19877;SDS011;10101;52.204;9.910;2024-03-08T13:25:42;28.93;;;16.53;;
19877;SDS011;10101;52.204;9.910;2024-03-08T13:28:10;26.97;;;16.77;;
19877;SDS011;10101;52.204;9.910;2024-03-08T13:30:37;23.37;;;15.37;;
19877;SDS011;10101;52.204;9.910;2024-03-08T13:33:04;28.57;;;16.67;;
19877;SDS011;10101;52.204;9.910;2024-03-08T13:35:33;27.67;;;16.33;;
19877;SDS011;10101;52.204;9.910;2024-03-08T13:38:00;23.17;;;15.30;;
19877;SDS011;10101;52.204;9.910;2024-03-08T13:40:29;25.37;;;16.30;;
19877;SDS011;10101;52.204;9.910;2024-03-08T13:42:56;28.53;;;16.23;;
19877;SDS011;10101;52.204;9.910;2024-03-08T13:45:26;27.67;;;16.47;;
19877;SDS011;10101;52.204;9.910;2024-03-08T13:47:53;27.30;;;15.60;;
19877;SDS011;10101;52.204;9.910;2024-03-08T13:50:20;25.57;;;15.90;;
19877;SDS011;10101;52.204;9.910;2024-03-08T13:52:49;25.37;;;15.70;;
19877;SDS011;10101;52.204;9.910;2024-03-08T13:55:16;27.27;;;16.07;;
19877;SDS011;10101;52.204;9.910;2024-03-08T13:57:43;26.17;;;16.37;;
19877;SDS011;10101;52.204;9.910;2024-03-08T14:00:11;25.67;;;16.10;;
19877;SDS011;10101;52.204;9.910;2024-03-08T14:02:39;25.73;;;16.03;;
19877;SDS011;10101;52.204;9.910;2024-03-08T14:05:07;26.50;;;16.33;;
19877;SDS011;10101;52.204;9.910;2024-03-08T14:07:34;25.27;;;17.23;;
19877;SDS011;10101;52.204;9.910;2024-03-08T14:10:03;27.20;;;16.47;;
19877;SDS011;10101;52.204;9.910;2024-03-08T14:12:32;25.70;;;16.37;;
19877;SDS011;10101;52.204;9.910;2024-03-08T14:14:59;25.47;;;16.37;;
19877;SDS011;10101;52.204;9.910;2024-03-08T14:17:26;24.60;;;16.20;;
19877;SDS011;10101;52.204;9.910;2024-03-08T14:19:56;27.07;;;16.33;;
19877;SDS011;10101;52.204;9.910;2024-03-08T14:22:24;27.27;;;16.43;;
19877;SDS011;10101;52.204;9.910;2024-03-08T14:24:51;27.70;;;16.40;;
19877;SDS011;10101;52.204;9.910;2024-03-08T14:27:22;25.97;;;16.53;;
19877;SDS011;10101;52.204;9.910;2024-03-08T14:29:49;26.67;;;16.50;;
19877;SDS011;10101;52.204;9.910;2024-03-08T14:32:16;25.57;;;16.57;;